createdAt,value
2023-03-28T00:01:47.873Z,4.70
2023-03-28T00:04:17.498Z,4.70
2023-03-28T00:06:45.842Z,4.60
2023-03-28T00:09:13.915Z,4.70
2023-03-28T00:11:41.937Z,4.60
2023-03-28T00:14:10.436Z,4.60
2023-03-28T00:16:40.271Z,4.60
2023-03-28T00:19:11.692Z,4.60
2023-03-28T00:21:46.948Z,4.60
2023-03-28T00:24:17.585Z,4.60
2023-03-28T00:26:54.533Z,4.60
2023-03-28T00:29:25.983Z,4.50
2023-03-28T00:31:54.501Z,4.50
2023-03-28T00:34:22.417Z,4.50
2023-03-28T00:36:54.095Z,4.50
2023-03-28T00:39:22.370Z,4.50
2023-03-28T00:41:50.390Z,4.50
2023-03-28T00:44:48.778Z,4.40
2023-03-28T00:47:30.863Z,4.40
2023-03-28T00:50:02.634Z,4.40
2023-03-28T00:52:37.312Z,4.40
2023-03-28T00:55:09.234Z,4.40
2023-03-28T00:57:38.492Z,4.40
2023-03-28T01:00:09.470Z,4.30
2023-03-28T01:02:40.404Z,4.30
2023-03-28T01:05:14.466Z,4.30
2023-03-28T01:07:48.629Z,4.30
2023-03-28T01:10:22.267Z,4.30
2023-03-28T01:12:52.664Z,4.30
2023-03-28T01:15:21.923Z,4.20
2023-03-28T01:17:55.418Z,4.20
2023-03-28T01:20:43.135Z,4.20
2023-03-28T01:23:42.297Z,4.10
2023-03-28T01:26:45.373Z,4.10
2023-03-28T01:29:48.397Z,4.10
2023-03-28T01:32:48.112Z,4.10
2023-03-28T01:35:56.098Z,4.10
2023-03-28T01:38:29.262Z,4.00
2023-03-28T01:41:04.095Z,4.00
2023-03-28T01:43:49.820Z,4.00
2023-03-28T01:46:23.068Z,3.90
2023-03-28T01:48:58.819Z,3.90
2023-03-28T01:51:39.951Z,3.90
2023-03-28T01:54:14.877Z,3.90
2023-03-28T01:56:52.287Z,3.80
2023-03-28T01:59:37.236Z,3.80
2023-03-28T02:02:30.381Z,3.80
2023-03-28T02:05:15.534Z,3.70
2023-03-28T02:07:48.853Z,3.70
2023-03-28T02:10:22.805Z,3.70
2023-03-28T02:13:03.634Z,3.70
2023-03-28T02:15:51.466Z,3.70
2023-03-28T02:18:34.123Z,3.60
2023-03-28T02:21:31.148Z,3.60
2023-03-28T02:24:09.658Z,3.60
2023-03-28T02:26:58.331Z,3.60
2023-03-28T02:29:39.065Z,3.60
2023-03-28T02:32:22.301Z,3.60
2023-03-28T02:34:53.579Z,3.50
2023-03-28T02:37:32.526Z,3.50
2023-03-28T02:40:16.031Z,3.50
2023-03-28T02:43:13.188Z,3.50
2023-03-28T02:46:04.695Z,3.50
2023-03-28T02:48:46.983Z,3.50
2023-03-28T02:51:23.555Z,3.40
2023-03-28T02:53:59.009Z,3.40
2023-03-28T02:56:38.521Z,3.40
2023-03-28T02:59:19.720Z,3.40
2023-03-28T03:01:47.860Z,3.30
2023-03-28T03:04:17.575Z,3.30
2023-03-28T03:06:48.563Z,3.30
2023-03-28T03:09:18.651Z,3.30
2023-03-28T03:11:46.612Z,3.20
2023-03-28T03:14:16.106Z,3.20
2023-03-28T03:16:45.201Z,3.20
2023-03-28T03:19:13.673Z,3.20
2023-03-28T03:21:42.216Z,3.10
2023-03-28T03:24:10.553Z,3.20
2023-03-28T03:26:43.489Z,3.10
2023-03-28T03:29:18.431Z,3.10
2023-03-28T03:31:46.813Z,3.10
2023-03-28T03:34:36.731Z,3.10
2023-03-28T03:37:05.669Z,3.10
2023-03-28T03:39:35.877Z,3.10
2023-03-28T03:42:04.833Z,3.00
2023-03-28T03:44:35.902Z,3.10
2023-03-28T03:47:04.157Z,3.00
2023-03-28T03:49:32.199Z,3.00
2023-03-28T03:52:04.708Z,2.90
2023-03-28T03:54:32.732Z,2.90
2023-03-28T03:57:01.523Z,2.90
2023-03-28T03:59:29.855Z,2.90
2023-03-28T04:01:59.122Z,2.90
2023-03-28T04:04:48.619Z,2.90
2023-03-28T04:07:22.906Z,3.00
2023-03-28T04:09:53.943Z,3.00
2023-03-28T04:12:22.059Z,3.00
2023-03-28T04:14:52.395Z,3.00
2023-03-28T04:17:56.944Z,3.00
2023-03-28T04:20:31.713Z,3.10
2023-03-28T04:23:10.346Z,3.00
2023-03-28T04:25:41.871Z,3.10
2023-03-28T04:28:18.067Z,3.10
2023-03-28T04:30:58.654Z,3.10
2023-03-28T04:34:05.507Z,3.20
2023-03-28T04:36:37.757Z,3.20
2023-03-28T04:39:06.429Z,3.20
2023-03-28T04:42:01.924Z,3.20
2023-03-28T04:44:56.262Z,3.20
2023-03-28T04:47:25.607Z,3.30
2023-03-28T04:49:55.123Z,3.30
2023-03-28T04:52:23.324Z,3.30
2023-03-28T04:54:51.834Z,3.30
2023-03-28T04:57:23.134Z,3.30
2023-03-28T04:59:56.048Z,3.30
2023-03-28T05:02:42.917Z,3.40
2023-03-28T05:05:15.791Z,3.40
2023-03-28T05:07:44.165Z,3.40
2023-03-28T05:10:14.089Z,3.40
2023-03-28T05:12:42.790Z,3.40
2023-03-28T05:15:11.691Z,3.40
2023-03-28T05:18:00.851Z,3.40
2023-03-28T05:20:37.130Z,3.40
2023-03-28T05:23:07.458Z,3.40
2023-03-28T05:25:38.741Z,3.40
2023-03-28T05:28:07.448Z,3.40
2023-03-28T05:30:40.919Z,3.40
2023-03-28T05:33:09.185Z,3.40
2023-03-28T05:35:39.193Z,3.40
2023-03-28T05:38:07.759Z,3.40
2023-03-28T05:40:35.803Z,3.40
2023-03-28T05:43:03.787Z,3.40
2023-03-28T05:45:32.355Z,3.40
2023-03-28T05:48:21.503Z,3.40
2023-03-28T05:50:51.262Z,3.40
2023-03-28T05:53:20.205Z,3.40
2023-03-28T05:55:49.559Z,3.40
2023-03-28T05:58:20.258Z,3.40
2023-03-28T06:00:48.396Z,3.50
2023-03-28T06:03:17.700Z,3.50
2023-03-28T06:05:47.879Z,3.50
2023-03-28T06:08:23.004Z,3.50
2023-03-28T06:10:51.442Z,3.60
2023-03-28T06:13:42.198Z,3.60
2023-03-28T06:16:12.332Z,3.60
2023-03-28T06:18:40.882Z,3.60
2023-03-28T06:21:10.439Z,3.70
2023-03-28T06:23:39.860Z,3.70
2023-03-28T06:26:16.354Z,3.70
2023-03-28T06:28:44.324Z,3.70
2023-03-28T06:31:21.914Z,3.70
2023-03-28T06:33:50.418Z,3.80
2023-03-28T06:36:21.028Z,3.80
2023-03-28T06:38:52.256Z,3.90
2023-03-28T06:41:25.026Z,3.90
2023-03-28T06:43:53.077Z,3.90
2023-03-28T06:46:50.601Z,4.00
2023-03-28T06:49:18.744Z,4.00
2023-03-28T06:52:06.109Z,4.10
2023-03-28T06:54:35.973Z,4.20
2023-03-28T06:57:04.144Z,4.20
2023-03-28T06:59:32.610Z,4.20
2023-03-28T07:02:04.486Z,4.30
2023-03-28T07:04:35.883Z,4.40
2023-03-28T07:07:04.377Z,4.40
2023-03-28T07:09:32.572Z,4.50
2023-03-28T07:12:08.725Z,4.50
2023-03-28T07:14:37.036Z,4.60
2023-03-28T07:17:04.922Z,4.70
2023-03-28T07:19:34.033Z,4.80
2023-03-28T07:22:02.162Z,4.80
2023-03-28T07:24:30.773Z,4.90
2023-03-28T07:27:15.604Z,4.90
2023-03-28T07:29:47.706Z,4.90
2023-03-28T07:32:17.109Z,4.90
2023-03-28T07:34:46.774Z,4.90
2023-03-28T07:37:20.867Z,5.00
2023-03-28T07:39:57.268Z,5.00
2023-03-28T07:42:27.861Z,5.10
2023-03-28T07:44:57.636Z,5.10
2023-03-28T07:47:25.535Z,5.20
2023-03-28T07:49:53.776Z,5.30
2023-03-28T07:52:22.625Z,5.40
2023-03-28T07:54:50.832Z,5.40
2023-03-28T07:57:18.802Z,5.50
2023-03-28T08:00:00.330Z,5.70
2023-03-28T08:02:28.841Z,5.70
2023-03-28T08:04:57.452Z,5.80
2023-03-28T08:07:27.136Z,5.90
2023-03-28T08:09:58.436Z,6.00
2023-03-28T08:12:28.820Z,6.10
2023-03-28T08:14:56.974Z,6.10
2023-03-28T08:17:27.641Z,6.20
2023-03-28T08:19:57.442Z,6.20
2023-03-28T08:22:28.264Z,6.20
2023-03-28T08:25:11.298Z,6.30
2023-03-28T08:27:39.819Z,6.30
2023-03-28T08:30:12.246Z,6.40
2023-03-28T08:32:52.104Z,6.50
2023-03-28T08:35:20.124Z,6.50
2023-03-28T08:37:51.285Z,6.60
2023-03-28T08:40:21.536Z,6.80
2023-03-28T08:43:01.390Z,7.30
2023-03-28T08:45:49.097Z,8.10
2023-03-28T08:48:23.887Z,9.20
2023-03-28T08:50:57.656Z,10.50
2023-03-28T08:53:34.180Z,12.00
2023-03-28T08:56:06.502Z,13.40
2023-03-28T08:58:40.866Z,14.80
2023-03-28T09:01:10.943Z,15.90
2023-03-28T09:03:41.514Z,17.00
2023-03-28T09:06:24.942Z,17.80
2023-03-28T09:09:21.315Z,18.30
2023-03-28T09:12:05.673Z,18.30
2023-03-28T09:14:57.468Z,18.40
2023-03-28T09:17:38.299Z,18.60
2023-03-28T09:20:19.449Z,19.20
2023-03-28T09:23:25.650Z,19.70
2023-03-28T09:26:17.343Z,20.20
2023-03-28T09:28:53.230Z,20.80
2023-03-28T09:31:27.830Z,21.50
2023-03-28T09:34:00.429Z,22.10
2023-03-28T09:36:48.981Z,22.80
2023-03-28T09:39:32.669Z,23.30
2023-03-28T09:42:05.840Z,23.30
2023-03-28T09:44:54.886Z,23.40
2023-03-28T09:47:45.047Z,23.40
2023-03-28T09:50:16.293Z,23.70
2023-03-28T09:52:51.214Z,23.90
2023-03-28T09:55:21.958Z,23.90
2023-03-28T09:58:02.507Z,23.80
2023-03-28T10:00:36.364Z,23.60
2023-03-28T10:03:32.297Z,23.40
2023-03-28T10:06:19.586Z,23.30
2023-03-28T10:08:50.382Z,23.20
2023-03-28T10:11:25.429Z,23.00
2023-03-28T10:13:55.652Z,22.90
2023-03-28T10:16:30.070Z,22.70
2023-03-28T10:19:23.183Z,22.60
2023-03-28T10:22:07.440Z,22.60
2023-03-28T10:24:39.857Z,22.60
2023-03-28T10:27:15.011Z,22.70
2023-03-28T10:29:43.621Z,22.70
2023-03-28T10:32:14.536Z,22.70
2023-03-28T10:35:00.273Z,22.60
2023-03-28T10:37:49.432Z,22.50
2023-03-28T10:40:29.983Z,22.30
2023-03-28T10:43:23.277Z,22.00
2023-03-28T10:46:27.809Z,21.70
2023-03-28T10:49:15.403Z,21.30
2023-03-28T10:51:49.018Z,20.80
2023-03-28T10:54:32.556Z,20.40
2023-03-28T10:57:10.313Z,19.90
2023-03-28T10:59:49.314Z,19.40
2023-03-28T11:02:35.103Z,18.90
2023-03-28T11:05:18.025Z,18.60
2023-03-28T11:07:55.046Z,18.40
2023-03-28T11:10:53.632Z,18.30
2023-03-28T11:13:38.479Z,18.20
2023-03-28T11:16:16.866Z,18.20
2023-03-28T11:19:16.117Z,18.30
2023-03-28T11:21:55.606Z,18.30
2023-03-28T11:24:34.479Z,18.20
2023-03-28T11:27:23.076Z,18.00
2023-03-28T11:29:59.629Z,17.80
2023-03-28T11:32:39.597Z,17.70
2023-03-28T11:35:16.980Z,17.80
2023-03-28T11:37:52.401Z,17.90
2023-03-28T11:40:26.104Z,18.10
2023-03-28T11:43:04.630Z,18.20
2023-03-28T11:45:50.041Z,18.30
2023-03-28T11:48:26.148Z,18.40
2023-03-28T11:51:03.905Z,18.50
2023-03-28T11:54:05.273Z,18.60
2023-03-28T11:56:48.197Z,18.90
2023-03-28T11:59:29.240Z,19.20
2023-03-28T12:02:06.671Z,19.50
2023-03-28T12:04:43.554Z,19.80
2023-03-28T12:07:17.467Z,20.20
2023-03-28T12:09:58.894Z,20.60
2023-03-28T12:12:30.922Z,21.00
2023-03-28T12:15:01.943Z,21.30
2023-03-28T12:17:58.523Z,21.70
2023-03-28T12:20:32.960Z,22.00
2023-03-28T12:23:09.177Z,22.20
2023-03-28T12:26:22.821Z,22.30
2023-03-28T12:28:54.269Z,22.40
2023-03-28T12:31:31.633Z,22.60
2023-03-28T12:34:18.376Z,22.60
2023-03-28T12:37:17.569Z,22.70
2023-03-28T12:39:52.385Z,22.80
2023-03-28T12:42:28.667Z,22.70
2023-03-28T12:45:01.971Z,22.60
2023-03-28T12:47:35.984Z,22.40
2023-03-28T12:50:11.420Z,22.20
2023-03-28T12:52:42.231Z,22.10
2023-03-28T12:55:42.469Z,21.90
2023-03-28T12:58:21.909Z,21.80
2023-03-28T13:01:03.642Z,21.60
2023-03-28T13:03:47.661Z,21.40
2023-03-28T13:06:28.934Z,21.30
2023-03-28T13:09:21.728Z,21.20
2023-03-28T13:11:56.963Z,21.00
2023-03-28T13:14:36.439Z,20.90
2023-03-28T13:17:18.387Z,20.90
2023-03-28T13:19:51.760Z,20.90
2023-03-28T13:22:29.613Z,21.00
2023-03-28T13:25:23.270Z,21.10
2023-03-28T13:27:52.731Z,21.10
2023-03-28T13:30:26.312Z,21.20
2023-03-28T13:32:56.465Z,21.20
2023-03-28T13:35:41.049Z,21.30
2023-03-28T13:38:34.176Z,21.40
2023-03-28T13:41:06.621Z,21.60
2023-03-28T13:43:44.813Z,21.80
2023-03-28T13:46:16.365Z,21.90
2023-03-28T13:48:50.642Z,22.10
2023-03-28T13:51:22.312Z,22.10
2023-03-28T13:53:51.686Z,22.20
2023-03-28T13:56:25.123Z,22.30
2023-03-28T13:58:55.454Z,22.40
2023-03-28T14:01:26.034Z,22.50
2023-03-28T14:03:55.875Z,22.60
2023-03-28T14:06:26.260Z,22.50
2023-03-28T14:08:57.800Z,22.30
2023-03-28T14:11:30.505Z,22.10
2023-03-28T14:14:07.314Z,22.00
2023-03-28T14:16:37.559Z,21.70
2023-03-28T14:19:06.720Z,21.60
2023-03-28T14:21:35.869Z,21.50
2023-03-28T14:24:07.420Z,21.30
2023-03-28T14:26:36.882Z,21.10
2023-03-28T14:29:08.447Z,20.90
2023-03-28T14:31:39.258Z,20.60
2023-03-28T14:34:24.198Z,20.30
2023-03-28T14:36:59.262Z,20.10
2023-03-28T14:39:30.335Z,19.90
2023-03-28T14:42:01.444Z,19.90
2023-03-28T14:44:31.342Z,19.80
2023-03-28T14:47:00.936Z,19.80
2023-03-28T14:49:29.828Z,19.70
2023-03-28T14:51:59.922Z,19.60
2023-03-28T14:54:32.880Z,19.50
2023-03-28T14:57:01.595Z,19.30
2023-03-28T14:59:38.244Z,19.10
2023-03-28T15:02:07.544Z,19.00
2023-03-28T15:04:37.174Z,19.00
2023-03-28T15:07:09.107Z,19.10
2023-03-28T15:09:38.480Z,19.20
2023-03-28T15:12:09.629Z,19.30
2023-03-28T15:14:42.523Z,19.50
2023-03-28T15:17:18.825Z,19.60
2023-03-28T15:19:51.150Z,19.70
2023-03-28T15:22:24.737Z,19.70
2023-03-28T15:24:55.583Z,19.80
2023-03-28T15:27:28.013Z,19.80
2023-03-28T15:29:56.704Z,19.70
2023-03-28T15:32:27.520Z,19.60
2023-03-28T15:35:00.685Z,19.60
2023-03-28T15:37:28.806Z,19.50
2023-03-28T15:40:13.299Z,19.50
2023-03-28T15:42:41.744Z,19.30
2023-03-28T15:45:23.451Z,19.20
2023-03-28T15:47:55.040Z,19.10
2023-03-28T15:50:27.791Z,18.90
2023-03-28T15:53:00.951Z,18.80
2023-03-28T15:55:32.201Z,18.70
2023-03-28T15:58:00.983Z,18.50
2023-03-28T16:00:47.427Z,18.40
2023-03-28T16:03:39.798Z,18.30
2023-03-28T16:06:26.596Z,18.20
2023-03-28T16:09:15.055Z,18.10
2023-03-28T16:11:45.719Z,18.00
2023-03-28T16:14:47.835Z,17.80
2023-03-28T16:17:41.832Z,17.60
2023-03-28T16:20:20.861Z,17.40
2023-03-28T16:22:50.643Z,17.20
2023-03-28T16:25:19.573Z,17.00
2023-03-28T16:27:49.045Z,16.80
2023-03-28T16:30:20.679Z,16.60
2023-03-28T16:32:48.810Z,16.50
2023-03-28T16:35:17.156Z,16.40
2023-03-28T16:37:45.928Z,16.30
2023-03-28T16:40:14.306Z,16.20
2023-03-28T16:42:42.778Z,16.00
2023-03-28T16:45:13.720Z,15.90
2023-03-28T16:47:42.573Z,15.80
2023-03-28T16:50:11.192Z,15.70
2023-03-28T16:52:40.323Z,15.60
2023-03-28T16:55:10.296Z,15.40
2023-03-28T16:57:38.892Z,15.30
2023-03-28T17:00:09.581Z,15.20
2023-03-28T17:02:39.442Z,15.10
2023-03-28T17:05:08.498Z,15.00
2023-03-28T17:07:37.150Z,14.90
2023-03-28T17:10:05.562Z,14.80
2023-03-28T17:12:34.172Z,14.70
2023-03-28T17:15:02.408Z,14.60
2023-03-28T17:17:30.353Z,14.60
2023-03-28T17:20:00.588Z,14.50
2023-03-28T17:22:28.601Z,14.40
2023-03-28T17:24:57.326Z,14.40
2023-03-28T17:27:25.526Z,14.30
2023-03-28T17:29:53.444Z,14.20
2023-03-28T17:32:22.097Z,14.20
2023-03-28T17:34:50.268Z,14.00
2023-03-28T17:37:20.461Z,13.90
2023-03-28T17:39:48.541Z,13.90
2023-03-28T17:42:17.195Z,13.80
2023-03-28T17:44:45.498Z,13.70
2023-03-28T17:47:13.518Z,13.60
2023-03-28T17:49:41.667Z,13.70
2023-03-28T17:52:11.140Z,13.50
2023-03-28T17:54:41.166Z,13.50
2023-03-28T17:57:09.648Z,13.40
2023-03-28T17:59:37.583Z,13.40
2023-03-28T18:02:05.807Z,13.30
2023-03-28T18:04:34.023Z,13.30
2023-03-28T18:07:01.914Z,13.30
2023-03-28T18:09:30.116Z,13.20
2023-03-28T18:11:59.623Z,13.10
2023-03-28T18:14:27.545Z,13.10
2023-03-28T18:16:56.473Z,13.20
2023-03-28T18:19:24.649Z,13.10
2023-03-28T18:21:52.780Z,13.00
2023-03-28T18:24:21.290Z,13.10
2023-03-28T18:26:49.548Z,12.90
2023-03-28T18:29:18.905Z,12.90
2023-03-28T18:31:47.465Z,12.80
2023-03-28T18:34:15.564Z,12.80
2023-03-28T18:36:44.035Z,12.90
2023-03-28T18:39:12.501Z,12.80
2023-03-28T18:41:40.441Z,12.70
2023-03-28T18:44:08.986Z,12.80
2023-03-28T18:46:38.737Z,12.70
2023-03-28T18:49:07.339Z,12.60
2023-03-28T18:51:36.513Z,12.60
2023-03-28T18:54:04.782Z,12.50
2023-03-28T18:56:32.961Z,12.50
2023-03-28T18:59:02.319Z,12.50
2023-03-28T19:01:30.542Z,12.50
2023-03-28T19:04:00.115Z,12.50
2023-03-28T19:06:28.298Z,12.50
2023-03-28T19:08:56.422Z,12.50
2023-03-28T19:11:24.463Z,12.40
2023-03-28T19:13:52.405Z,12.40
2023-03-28T19:16:20.559Z,12.40
2023-03-28T19:18:49.068Z,12.40
2023-03-28T19:21:18.463Z,12.40
2023-03-28T19:23:48.581Z,12.30
2023-03-28T19:26:18.352Z,12.30
2023-03-28T19:28:47.162Z,12.30
2023-03-28T19:31:15.433Z,12.20
2023-03-28T19:33:44.743Z,12.20
2023-03-28T19:36:13.192Z,12.20
2023-03-28T19:38:42.460Z,12.30
2023-03-28T19:41:18.285Z,12.10
2023-03-28T19:43:47.924Z,12.10
2023-03-28T19:46:20.797Z,12.10
2023-03-28T19:48:50.615Z,12.10
2023-03-28T19:51:18.514Z,12.10
2023-03-28T19:53:48.373Z,12.00
2023-03-28T19:56:18.828Z,12.00
2023-03-28T19:58:47.448Z,12.00
2023-03-28T20:01:16.530Z,11.90
2023-03-28T20:03:44.853Z,11.90
2023-03-28T20:06:13.998Z,11.90
2023-03-28T20:08:42.662Z,11.80
2023-03-28T20:11:13.841Z,11.80
2023-03-28T20:13:42.149Z,11.80
2023-03-28T20:16:11.527Z,11.70
2023-03-28T20:18:39.891Z,11.60
2023-03-28T20:21:09.842Z,11.60
2023-03-28T20:23:38.451Z,11.50
2023-03-28T20:26:16.841Z,11.40
2023-03-28T20:28:47.069Z,11.30
2023-03-28T20:31:15.049Z,11.20
2023-03-28T20:33:43.251Z,11.10
2023-03-28T20:36:11.336Z,11.10
2023-03-28T20:38:39.464Z,11.00
2023-03-28T20:41:11.019Z,10.90
2023-03-28T20:43:47.535Z,10.90
2023-03-28T20:46:18.908Z,10.80
2023-03-28T20:48:48.217Z,10.70
2023-03-28T20:51:17.527Z,10.70
2023-03-28T20:53:49.556Z,10.60
2023-03-28T20:56:18.860Z,10.60
2023-03-28T20:58:50.981Z,10.60
2023-03-28T21:01:26.459Z,10.60
2023-03-28T21:03:58.094Z,10.50
2023-03-28T21:06:29.298Z,10.50
2023-03-28T21:09:00.441Z,10.50
2023-03-28T21:11:30.058Z,10.50
2023-03-28T21:14:01.282Z,10.40
2023-03-28T21:16:30.396Z,10.40
2023-03-28T21:18:58.747Z,10.40
2023-03-28T21:21:29.680Z,10.30
2023-03-28T21:23:58.248Z,10.30
2023-03-28T21:26:26.900Z,10.30
2023-03-28T21:28:54.789Z,10.30
2023-03-28T21:31:29.230Z,10.30
2023-03-28T21:33:58.653Z,10.30
2023-03-28T21:36:28.084Z,10.20
2023-03-28T21:38:56.376Z,10.20
2023-03-28T21:41:24.606Z,10.20
2023-03-28T21:43:53.790Z,10.20
2023-03-28T21:46:22.489Z,10.20
2023-03-28T21:48:52.106Z,10.20
2023-03-28T21:51:20.675Z,10.20
2023-03-28T21:53:48.761Z,10.20
2023-03-28T21:56:16.894Z,10.10
2023-03-28T21:58:45.465Z,10.10
2023-03-28T22:01:15.132Z,10.10
2023-03-28T22:03:44.356Z,10.10
2023-03-28T22:06:14.801Z,10.10
2023-03-28T22:08:45.020Z,10.10
2023-03-28T22:11:15.431Z,10.00
2023-03-28T22:13:44.837Z,10.00
2023-03-28T22:16:14.086Z,10.00
2023-03-28T22:18:50.407Z,10.00
2023-03-28T22:21:19.812Z,10.00
2023-03-28T22:23:48.247Z,10.00
2023-03-28T22:26:16.394Z,10.00
2023-03-28T22:28:44.641Z,10.00
2023-03-28T22:31:13.360Z,9.90
2023-03-28T22:33:41.321Z,9.90
2023-03-28T22:36:10.878Z,9.90
2023-03-28T22:38:40.208Z,9.90
2023-03-28T22:41:08.286Z,9.90
2023-03-28T22:43:37.457Z,9.90
2023-03-28T22:46:06.514Z,9.90
2023-03-28T22:48:38.066Z,9.90
2023-03-28T22:51:11.537Z,9.90
2023-03-28T22:53:41.509Z,9.80
2023-03-28T22:56:10.223Z,9.90
2023-03-28T22:58:38.185Z,9.80
2023-03-28T23:01:06.903Z,9.80
2023-03-28T23:03:35.051Z,9.80
2023-03-28T23:06:05.946Z,9.80
2023-03-28T23:08:34.998Z,9.80
2023-03-28T23:11:04.596Z,9.70
2023-03-28T23:13:32.784Z,9.80
2023-03-28T23:16:01.437Z,9.70
2023-03-28T23:18:30.133Z,9.70
2023-03-28T23:20:58.308Z,9.70
2023-03-28T23:23:27.301Z,9.70
2023-03-28T23:25:55.868Z,9.70
2023-03-28T23:28:25.613Z,9.70
2023-03-28T23:30:54.163Z,9.70
2023-03-28T23:33:22.046Z,9.70
2023-03-28T23:35:50.094Z,9.70
2023-03-28T23:38:18.277Z,9.70
2023-03-28T23:40:46.553Z,9.70
2023-03-28T23:43:14.560Z,9.70
2023-03-28T23:45:44.845Z,9.70
2023-03-28T23:48:13.080Z,9.70
2023-03-28T23:50:41.565Z,9.70
2023-03-28T23:53:09.685Z,9.70
2023-03-28T23:55:37.656Z,9.60
2023-03-28T23:58:05.715Z,9.70
